sensor_id;sensor_type;location;lat;lon;timestamp;P1;durP1;ratioP1;P2;durP2;ratioP2
82242;SDS011;71844;51.528;4.442;2023-10-08T00:01:19;2.47;;;0.90;;
82242;SDS011;71844;51.528;4.442;2023-10-08T00:03:48;3.75;;;1.05;;
82242;SDS011;71844;51.528;4.442;2023-10-08T00:06:16;3.35;;;1.00;;
82242;SDS011;71844;51.528;4.442;2023-10-08T00:08:46;3.10;;;0.80;;
82242;SDS011;71844;51.528;4.442;2023-10-08T00:11:14;3.67;;;1.08;;
82242;SDS011;71844;51.528;4.442;2023-10-08T00:13:45;2.50;;;0.77;;
82242;SDS011;71844;51.528;4.442;2023-10-08T00:16:15;4.28;;;1.00;;
82242;SDS011;71844;51.528;4.442;2023-10-08T00:18:44;4.70;;;0.80;;
82242;SDS011;71844;51.528;4.442;2023-10-08T00:21:18;2.95;;;1.00;;
82242;SDS011;71844;51.528;4.442;2023-10-08T00:23:53;5.22;;;1.23;;
82242;SDS011;71844;51.528;4.442;2023-10-08T00:26:24;4.25;;;1.13;;
82242;SDS011;71844;51.528;4.442;2023-10-08T00:29:04;4.10;;;0.95;;
82242;SDS011;71844;51.528;4.442;2023-10-08T00:31:33;3.35;;;1.00;;
82242;SDS011;71844;51.528;4.442;2023-10-08T00:34:08;4.32;;;1.00;;
82242;SDS011;71844;51.528;4.442;2023-10-08T00:36:43;3.78;;;0.80;;
82242;SDS011;71844;51.528;4.442;2023-10-08T00:39:12;3.80;;;0.88;;
82242;SDS011;71844;51.528;4.442;2023-10-08T00:41:43;3.13;;;1.00;;
82242;SDS011;71844;51.528;4.442;2023-10-08T00:44:12;2.70;;;1.20;;
82242;SDS011;71844;51.528;4.442;2023-10-08T00:46:49;3.70;;;0.90;;
82242;SDS011;71844;51.528;4.442;2023-10-08T00:49:17;4.80;;;1.05;;
82242;SDS011;71844;51.528;4.442;2023-10-08T00:51:48;4.13;;;1.17;;
82242;SDS011;71844;51.528;4.442;2023-10-08T00:54:34;3.28;;;1.08;;
82242;SDS011;71844;51.528;4.442;2023-10-08T00:57:16;3.50;;;0.93;;
82242;SDS011;71844;51.528;4.442;2023-10-08T00:59:48;4.40;;;1.40;;
82242;SDS011;71844;51.528;4.442;2023-10-08T01:02:22;2.85;;;0.95;;
82242;SDS011;71844;51.528;4.442;2023-10-08T01:05:03;3.70;;;0.90;;
82242;SDS011;71844;51.528;4.442;2023-10-08T01:07:30;2.90;;;1.20;;
82242;SDS011;71844;51.528;4.442;2023-10-08T01:10:02;3.38;;;1.05;;
82242;SDS011;71844;51.528;4.442;2023-10-08T01:12:36;3.42;;;1.05;;
82242;SDS011;71844;51.528;4.442;2023-10-08T01:15:16;3.97;;;1.00;;
82242;SDS011;71844;51.528;4.442;2023-10-08T01:17:50;4.45;;;1.15;;
82242;SDS011;71844;51.528;4.442;2023-10-08T01:20:27;2.85;;;1.33;;
82242;SDS011;71844;51.528;4.442;2023-10-08T01:23:07;4.65;;;1.15;;
82242;SDS011;71844;51.528;4.442;2023-10-08T01:25:40;3.75;;;0.90;;
82242;SDS011;71844;51.528;4.442;2023-10-08T01:28:08;4.88;;;0.82;;
82242;SDS011;71844;51.528;4.442;2023-10-08T01:31:02;3.33;;;1.10;;
82242;SDS011;71844;51.528;4.442;2023-10-08T01:33:31;4.30;;;1.20;;
82242;SDS011;71844;51.528;4.442;2023-10-08T01:36:01;4.30;;;1.27;;
82242;SDS011;71844;51.528;4.442;2023-10-08T01:41:02;3.78;;;1.10;;
82242;SDS011;71844;51.528;4.442;2023-10-08T01:43:32;5.28;;;1.50;;
82242;SDS011;71844;51.528;4.442;2023-10-08T01:45:58;4.65;;;1.17;;
82242;SDS011;71844;51.528;4.442;2023-10-08T01:48:29;3.58;;;1.13;;
82242;SDS011;71844;51.528;4.442;2023-10-08T01:51:03;4.13;;;0.88;;
82242;SDS011;71844;51.528;4.442;2023-10-08T01:53:38;3.08;;;0.95;;
82242;SDS011;71844;51.528;4.442;2023-10-08T01:56:05;3.80;;;0.90;;
82242;SDS011;71844;51.528;4.442;2023-10-08T01:58:32;4.03;;;0.98;;
82242;SDS011;71844;51.528;4.442;2023-10-08T02:01:00;3.65;;;1.20;;
82242;SDS011;71844;51.528;4.442;2023-10-08T02:03:27;3.47;;;1.27;;
82242;SDS011;71844;51.528;4.442;2023-10-08T02:05:54;3.83;;;1.20;;
82242;SDS011;71844;51.528;4.442;2023-10-08T02:08:25;3.92;;;1.20;;
82242;SDS011;71844;51.528;4.442;2023-10-08T02:10:53;4.85;;;1.38;;
82242;SDS011;71844;51.528;4.442;2023-10-08T02:13:20;4.53;;;1.20;;
82242;SDS011;71844;51.528;4.442;2023-10-08T02:15:50;3.58;;;1.13;;
82242;SDS011;71844;51.528;4.442;2023-10-08T02:18:20;3.30;;;0.95;;
82242;SDS011;71844;51.528;4.442;2023-10-08T02:20:50;2.97;;;1.23;;
82242;SDS011;71844;51.528;4.442;2023-10-08T02:23:17;3.45;;;1.15;;
82242;SDS011;71844;51.528;4.442;2023-10-08T02:25:44;3.38;;;1.45;;
82242;SDS011;71844;51.528;4.442;2023-10-08T02:28:11;6.07;;;1.35;;
82242;SDS011;71844;51.528;4.442;2023-10-08T02:30:39;5.05;;;1.63;;
82242;SDS011;71844;51.528;4.442;2023-10-08T02:33:05;3.88;;;1.23;;
82242;SDS011;71844;51.528;4.442;2023-10-08T02:35:41;5.13;;;1.67;;
82242;SDS011;71844;51.528;4.442;2023-10-08T02:38:13;3.83;;;1.30;;
82242;SDS011;71844;51.528;4.442;2023-10-08T02:40:43;2.78;;;1.13;;
82242;SDS011;71844;51.528;4.442;2023-10-08T02:43:17;4.05;;;1.60;;
82242;SDS011;71844;51.528;4.442;2023-10-08T02:45:46;4.45;;;1.58;;
82242;SDS011;71844;51.528;4.442;2023-10-08T02:48:16;4.88;;;1.70;;
82242;SDS011;71844;51.528;4.442;2023-10-08T02:50:44;4.90;;;1.42;;
82242;SDS011;71844;51.528;4.442;2023-10-08T02:53:14;3.22;;;1.00;;
82242;SDS011;71844;51.528;4.442;2023-10-08T02:55:44;3.72;;;1.10;;
82242;SDS011;71844;51.528;4.442;2023-10-08T02:58:13;5.13;;;1.60;;
82242;SDS011;71844;51.528;4.442;2023-10-08T03:00:46;2.92;;;1.00;;
82242;SDS011;71844;51.528;4.442;2023-10-08T03:03:17;4.65;;;1.35;;
82242;SDS011;71844;51.528;4.442;2023-10-08T03:05:46;6.28;;;1.40;;
82242;SDS011;71844;51.528;4.442;2023-10-08T03:08:14;3.60;;;1.10;;
82242;SDS011;71844;51.528;4.442;2023-10-08T03:10:48;4.80;;;1.33;;
82242;SDS011;71844;51.528;4.442;2023-10-08T03:13:25;5.68;;;1.42;;
82242;SDS011;71844;51.528;4.442;2023-10-08T03:15:53;3.47;;;1.10;;
82242;SDS011;71844;51.528;4.442;2023-10-08T03:18:25;3.47;;;1.35;;
82242;SDS011;71844;51.528;4.442;2023-10-08T03:21:05;4.03;;;1.20;;
82242;SDS011;71844;51.528;4.442;2023-10-08T03:23:52;5.80;;;1.35;;
82242;SDS011;71844;51.528;4.442;2023-10-08T03:26:23;4.55;;;1.50;;
82242;SDS011;71844;51.528;4.442;2023-10-08T03:29:04;6.13;;;1.38;;
82242;SDS011;71844;51.528;4.442;2023-10-08T03:31:34;3.22;;;1.10;;
82242;SDS011;71844;51.528;4.442;2023-10-08T03:34:30;5.28;;;1.30;;
82242;SDS011;71844;51.528;4.442;2023-10-08T03:37:00;3.67;;;1.20;;
82242;SDS011;71844;51.528;4.442;2023-10-08T03:39:33;4.05;;;1.58;;
82242;SDS011;71844;51.528;4.442;2023-10-08T03:42:22;4.82;;;1.65;;
82242;SDS011;71844;51.528;4.442;2023-10-08T03:44:50;4.35;;;1.30;;
82242;SDS011;71844;51.528;4.442;2023-10-08T03:47:22;4.18;;;1.33;;
82242;SDS011;71844;51.528;4.442;2023-10-08T03:49:53;3.28;;;1.35;;
82242;SDS011;71844;51.528;4.442;2023-10-08T03:52:20;5.25;;;1.65;;
82242;SDS011;71844;51.528;4.442;2023-10-08T03:54:50;5.25;;;1.30;;
82242;SDS011;71844;51.528;4.442;2023-10-08T03:57:37;5.97;;;1.48;;
82242;SDS011;71844;51.528;4.442;2023-10-08T04:00:11;3.47;;;1.52;;
82242;SDS011;71844;51.528;4.442;2023-10-08T04:02:41;5.30;;;1.35;;
82242;SDS011;71844;51.528;4.442;2023-10-08T04:05:13;6.03;;;2.22;;
82242;SDS011;71844;51.528;4.442;2023-10-08T04:07:46;3.28;;;1.35;;
82242;SDS011;71844;51.528;4.442;2023-10-08T04:10:29;5.78;;;1.58;;
82242;SDS011;71844;51.528;4.442;2023-10-08T04:13:04;4.82;;;1.50;;
82242;SDS011;71844;51.528;4.442;2023-10-08T04:15:38;8.73;;;2.00;;
82242;SDS011;71844;51.528;4.442;2023-10-08T04:18:08;3.22;;;1.25;;
82242;SDS011;71844;51.528;4.442;2023-10-08T04:20:40;3.40;;;1.25;;
82242;SDS011;71844;51.528;4.442;2023-10-08T04:23:27;5.40;;;1.50;;
82242;SDS011;71844;51.528;4.442;2023-10-08T04:25:56;6.10;;;1.33;;
82242;SDS011;71844;51.528;4.442;2023-10-08T04:28:23;5.35;;;1.75;;
82242;SDS011;71844;51.528;4.442;2023-10-08T04:30:55;3.65;;;1.30;;
82242;SDS011;71844;51.528;4.442;2023-10-08T04:33:44;7.47;;;1.52;;
82242;SDS011;71844;51.528;4.442;2023-10-08T04:36:11;5.55;;;1.73;;
82242;SDS011;71844;51.528;4.442;2023-10-08T04:38:44;3.67;;;1.90;;
82242;SDS011;71844;51.528;4.442;2023-10-08T04:41:14;6.55;;;1.90;;
82242;SDS011;71844;51.528;4.442;2023-10-08T04:43:45;3.25;;;1.35;;
82242;SDS011;71844;51.528;4.442;2023-10-08T04:46:16;4.38;;;2.00;;
82242;SDS011;71844;51.528;4.442;2023-10-08T04:51:31;4.88;;;1.70;;
82242;SDS011;71844;51.528;4.442;2023-10-08T04:54:10;4.68;;;1.75;;
82242;SDS011;71844;51.528;4.442;2023-10-08T04:56:43;3.58;;;1.60;;
82242;SDS011;71844;51.528;4.442;2023-10-08T04:59:10;4.43;;;1.58;;
82242;SDS011;71844;51.528;4.442;2023-10-08T05:01:38;5.57;;;2.00;;
82242;SDS011;71844;51.528;4.442;2023-10-08T05:04:16;5.30;;;1.98;;
82242;SDS011;71844;51.528;4.442;2023-10-08T05:07:02;51.20;;;4.63;;
82242;SDS011;71844;51.528;4.442;2023-10-08T05:09:44;4.43;;;1.52;;
82242;SDS011;71844;51.528;4.442;2023-10-08T05:12:18;4.68;;;2.00;;
82242;SDS011;71844;51.528;4.442;2023-10-08T05:15:04;6.05;;;2.40;;
82242;SDS011;71844;51.528;4.442;2023-10-08T05:17:41;5.60;;;1.83;;
82242;SDS011;71844;51.528;4.442;2023-10-08T05:20:18;5.53;;;2.10;;
82242;SDS011;71844;51.528;4.442;2023-10-08T05:22:56;6.30;;;2.40;;
82242;SDS011;71844;51.528;4.442;2023-10-08T05:25:43;5.05;;;1.38;;
82242;SDS011;71844;51.528;4.442;2023-10-08T05:28:29;3.63;;;1.73;;
82242;SDS011;71844;51.528;4.442;2023-10-08T05:30:57;4.72;;;1.80;;
82242;SDS011;71844;51.528;4.442;2023-10-08T05:33:42;9.25;;;2.05;;
82242;SDS011;71844;51.528;4.442;2023-10-08T05:36:28;5.68;;;2.08;;
82242;SDS011;71844;51.528;4.442;2023-10-08T05:39:02;5.47;;;2.10;;
82242;SDS011;71844;51.528;4.442;2023-10-08T05:41:47;13.18;;;2.40;;
82242;SDS011;71844;51.528;4.442;2023-10-08T05:44:44;5.00;;;1.58;;
82242;SDS011;71844;51.528;4.442;2023-10-08T05:47:35;4.53;;;1.65;;
82242;SDS011;71844;51.528;4.442;2023-10-08T05:50:03;3.80;;;1.63;;
82242;SDS011;71844;51.528;4.442;2023-10-08T05:52:43;5.75;;;1.85;;
82242;SDS011;71844;51.528;4.442;2023-10-08T05:55:28;4.25;;;1.77;;
82242;SDS011;71844;51.528;4.442;2023-10-08T05:58:04;5.03;;;1.80;;
82242;SDS011;71844;51.528;4.442;2023-10-08T06:00:50;6.10;;;2.17;;
82242;SDS011;71844;51.528;4.442;2023-10-08T06:03:52;6.72;;;2.00;;
82242;SDS011;71844;51.528;4.442;2023-10-08T06:06:47;7.50;;;2.00;;
82242;SDS011;71844;51.528;4.442;2023-10-08T06:09:24;3.47;;;1.60;;
82242;SDS011;71844;51.528;4.442;2023-10-08T06:12:01;5.00;;;1.90;;
82242;SDS011;71844;51.528;4.442;2023-10-08T06:17:33;7.72;;;1.73;;
82242;SDS011;71844;51.528;4.442;2023-10-08T06:20:24;4.88;;;1.73;;
82242;SDS011;71844;51.528;4.442;2023-10-08T06:22:52;5.32;;;1.83;;
82242;SDS011;71844;51.528;4.442;2023-10-08T06:25:21;4.45;;;1.85;;
82242;SDS011;71844;51.528;4.442;2023-10-08T06:27:51;4.72;;;2.25;;
82242;SDS011;71844;51.528;4.442;2023-10-08T06:30:24;5.47;;;2.17;;
82242;SDS011;71844;51.528;4.442;2023-10-08T06:32:56;5.13;;;1.98;;
82242;SDS011;71844;51.528;4.442;2023-10-08T06:35:23;6.38;;;1.90;;
82242;SDS011;71844;51.528;4.442;2023-10-08T06:37:51;6.78;;;2.15;;
82242;SDS011;71844;51.528;4.442;2023-10-08T06:43:17;6.03;;;1.92;;
82242;SDS011;71844;51.528;4.442;2023-10-08T06:45:51;5.40;;;2.00;;
82242;SDS011;71844;51.528;4.442;2023-10-08T06:50:54;7.20;;;2.63;;
82242;SDS011;71844;51.528;4.442;2023-10-08T06:53:24;4.45;;;1.92;;
82242;SDS011;71844;51.528;4.442;2023-10-08T06:55:51;5.35;;;1.83;;
82242;SDS011;71844;51.528;4.442;2023-10-08T06:58:23;16.73;;;2.72;;
82242;SDS011;71844;51.528;4.442;2023-10-08T07:00:51;5.15;;;2.17;;
82242;SDS011;71844;51.528;4.442;2023-10-08T07:03:22;6.25;;;2.42;;
82242;SDS011;71844;51.528;4.442;2023-10-08T07:05:51;6.72;;;2.22;;
82242;SDS011;71844;51.528;4.442;2023-10-08T07:08:32;7.13;;;2.50;;
82242;SDS011;71844;51.528;4.442;2023-10-08T07:11:02;6.97;;;2.30;;
82242;SDS011;71844;51.528;4.442;2023-10-08T07:13:39;6.90;;;2.10;;
82242;SDS011;71844;51.528;4.442;2023-10-08T07:16:10;7.78;;;2.78;;
82242;SDS011;71844;51.528;4.442;2023-10-08T07:18:44;4.80;;;2.00;;
82242;SDS011;71844;51.528;4.442;2023-10-08T07:21:19;5.63;;;2.20;;
82242;SDS011;71844;51.528;4.442;2023-10-08T07:23:56;6.00;;;2.50;;
82242;SDS011;71844;51.528;4.442;2023-10-08T07:26:27;6.43;;;3.22;;
82242;SDS011;71844;51.528;4.442;2023-10-08T07:29:05;6.13;;;2.50;;
82242;SDS011;71844;51.528;4.442;2023-10-08T07:31:38;5.43;;;2.40;;
82242;SDS011;71844;51.528;4.442;2023-10-08T07:34:09;7.75;;;2.58;;
82242;SDS011;71844;51.528;4.442;2023-10-08T07:36:51;5.28;;;2.50;;
82242;SDS011;71844;51.528;4.442;2023-10-08T07:39:23;5.93;;;2.72;;
82242;SDS011;71844;51.528;4.442;2023-10-08T07:41:54;4.70;;;2.33;;
82242;SDS011;71844;51.528;4.442;2023-10-08T07:44:24;9.38;;;2.47;;
82242;SDS011;71844;51.528;4.442;2023-10-08T07:47:01;5.13;;;2.10;;
82242;SDS011;71844;51.528;4.442;2023-10-08T07:49:38;6.45;;;2.65;;
82242;SDS011;71844;51.528;4.442;2023-10-08T07:52:06;5.35;;;2.38;;
82242;SDS011;71844;51.528;4.442;2023-10-08T07:54:35;6.25;;;2.53;;
82242;SDS011;71844;51.528;4.442;2023-10-08T07:57:04;6.18;;;3.00;;
82242;SDS011;71844;51.528;4.442;2023-10-08T07:59:46;6.18;;;2.65;;
82242;SDS011;71844;51.528;4.442;2023-10-08T08:02:15;5.03;;;2.53;;
82242;SDS011;71844;51.528;4.442;2023-10-08T08:04:50;5.35;;;2.33;;
82242;SDS011;71844;51.528;4.442;2023-10-08T08:07:20;5.25;;;2.58;;
82242;SDS011;71844;51.528;4.442;2023-10-08T08:09:51;7.75;;;2.67;;
82242;SDS011;71844;51.528;4.442;2023-10-08T08:12:30;7.32;;;3.00;;
82242;SDS011;71844;51.528;4.442;2023-10-08T08:15:01;7.13;;;2.58;;
82242;SDS011;71844;51.528;4.442;2023-10-08T08:17:42;5.28;;;2.50;;
82242;SDS011;71844;51.528;4.442;2023-10-08T08:20:11;6.07;;;2.47;;
82242;SDS011;71844;51.528;4.442;2023-10-08T08:22:45;5.07;;;2.70;;
82242;SDS011;71844;51.528;4.442;2023-10-08T08:25:21;5.13;;;2.38;;
82242;SDS011;71844;51.528;4.442;2023-10-08T08:28:10;6.22;;;3.00;;
82242;SDS011;71844;51.528;4.442;2023-10-08T08:30:48;6.22;;;3.00;;
82242;SDS011;71844;51.528;4.442;2023-10-08T08:33:19;5.70;;;2.67;;
82242;SDS011;71844;51.528;4.442;2023-10-08T08:35:59;6.60;;;2.83;;
82242;SDS011;71844;51.528;4.442;2023-10-08T08:38:27;7.45;;;2.38;;
82242;SDS011;71844;51.528;4.442;2023-10-08T08:41:02;8.27;;;2.70;;
82242;SDS011;71844;51.528;4.442;2023-10-08T08:43:36;6.30;;;2.67;;
82242;SDS011;71844;51.528;4.442;2023-10-08T08:46:03;5.90;;;2.78;;
82242;SDS011;71844;51.528;4.442;2023-10-08T08:48:34;6.15;;;2.92;;
82242;SDS011;71844;51.528;4.442;2023-10-08T08:51:02;8.32;;;3.08;;
82242;SDS011;71844;51.528;4.442;2023-10-08T08:53:36;7.32;;;2.78;;
82242;SDS011;71844;51.528;4.442;2023-10-08T08:56:05;7.82;;;3.42;;
82242;SDS011;71844;51.528;4.442;2023-10-08T08:58:36;7.15;;;3.33;;
82242;SDS011;71844;51.528;4.442;2023-10-08T09:01:07;7.90;;;3.28;;
82242;SDS011;71844;51.528;4.442;2023-10-08T09:03:39;7.63;;;3.25;;
82242;SDS011;71844;51.528;4.442;2023-10-08T09:06:07;9.45;;;3.58;;
82242;SDS011;71844;51.528;4.442;2023-10-08T09:08:37;8.52;;;3.20;;
82242;SDS011;71844;51.528;4.442;2023-10-08T09:11:13;9.43;;;3.75;;
82242;SDS011;71844;51.528;4.442;2023-10-08T09:13:41;7.20;;;3.33;;
82242;SDS011;71844;51.528;4.442;2023-10-08T09:16:15;9.65;;;3.47;;
82242;SDS011;71844;51.528;4.442;2023-10-08T09:18:43;10.70;;;3.83;;
82242;SDS011;71844;51.528;4.442;2023-10-08T09:21:16;8.05;;;3.70;;
82242;SDS011;71844;51.528;4.442;2023-10-08T09:23:49;10.25;;;3.83;;
82242;SDS011;71844;51.528;4.442;2023-10-08T09:26:17;9.63;;;4.15;;
82242;SDS011;71844;51.528;4.442;2023-10-08T09:28:46;9.95;;;4.43;;
82242;SDS011;71844;51.528;4.442;2023-10-08T09:31:13;11.05;;;4.43;;
82242;SDS011;71844;51.528;4.442;2023-10-08T09:33:41;12.85;;;4.78;;
82242;SDS011;71844;51.528;4.442;2023-10-08T09:36:09;13.88;;;5.32;;
82242;SDS011;71844;51.528;4.442;2023-10-08T09:38:44;12.00;;;5.20;;
82242;SDS011;71844;51.528;4.442;2023-10-08T09:41:16;12.02;;;5.65;;
82242;SDS011;71844;51.528;4.442;2023-10-08T09:43:45;14.00;;;5.93;;
82242;SDS011;71844;51.528;4.442;2023-10-08T09:48:46;12.95;;;5.90;;
82242;SDS011;71844;51.528;4.442;2023-10-08T09:51:17;13.43;;;5.60;;
82242;SDS011;71844;51.528;4.442;2023-10-08T09:56:25;13.82;;;5.78;;
82242;SDS011;71844;51.528;4.442;2023-10-08T09:58:55;13.45;;;5.85;;
82242;SDS011;71844;51.528;4.442;2023-10-08T10:01:22;13.77;;;5.80;;
82242;SDS011;71844;51.528;4.442;2023-10-08T10:03:50;13.98;;;5.47;;
82242;SDS011;71844;51.528;4.442;2023-10-08T10:06:18;11.98;;;5.78;;
82242;SDS011;71844;51.528;4.442;2023-10-08T10:08:45;15.85;;;5.60;;
82242;SDS011;71844;51.528;4.442;2023-10-08T10:11:15;13.05;;;4.88;;
82242;SDS011;71844;51.528;4.442;2023-10-08T10:13:45;11.68;;;5.10;;
82242;SDS011;71844;51.528;4.442;2023-10-08T10:16:20;11.85;;;5.20;;
82242;SDS011;71844;51.528;4.442;2023-10-08T10:18:54;13.38;;;5.50;;
82242;SDS011;71844;51.528;4.442;2023-10-08T10:21:26;13.82;;;5.95;;
82242;SDS011;71844;51.528;4.442;2023-10-08T10:23:57;11.88;;;5.90;;
82242;SDS011;71844;51.528;4.442;2023-10-08T10:31:46;13.35;;;6.22;;
82242;SDS011;71844;51.528;4.442;2023-10-08T10:34:19;13.88;;;5.32;;
82242;SDS011;71844;51.528;4.442;2023-10-08T10:36:49;10.63;;;5.35;;
82242;SDS011;71844;51.528;4.442;2023-10-08T10:39:22;10.82;;;5.38;;
82242;SDS011;71844;51.528;4.442;2023-10-08T10:41:54;12.38;;;5.30;;
82242;SDS011;71844;51.528;4.442;2023-10-08T10:44:28;14.13;;;5.18;;
82242;SDS011;71844;51.528;4.442;2023-10-08T10:47:05;11.80;;;5.80;;
82242;SDS011;71844;51.528;4.442;2023-10-08T10:49:45;12.57;;;5.70;;
82242;SDS011;71844;51.528;4.442;2023-10-08T10:52:38;11.70;;;5.40;;
82242;SDS011;71844;51.528;4.442;2023-10-08T10:55:14;16.00;;;6.20;;
82242;SDS011;71844;51.528;4.442;2023-10-08T10:57:54;11.45;;;5.18;;
82242;SDS011;71844;51.528;4.442;2023-10-08T11:00:24;10.27;;;5.43;;
82242;SDS011;71844;51.528;4.442;2023-10-08T11:03:15;11.52;;;5.13;;
82242;SDS011;71844;51.528;4.442;2023-10-08T11:05:53;12.45;;;5.57;;
82242;SDS011;71844;51.528;4.442;2023-10-08T11:08:26;12.25;;;5.32;;
82242;SDS011;71844;51.528;4.442;2023-10-08T11:11:02;10.57;;;5.03;;
82242;SDS011;71844;51.528;4.442;2023-10-08T11:13:33;11.60;;;5.28;;
82242;SDS011;71844;51.528;4.442;2023-10-08T11:16:06;11.77;;;4.82;;
82242;SDS011;71844;51.528;4.442;2023-10-08T11:18:41;12.32;;;5.95;;
82242;SDS011;71844;51.528;4.442;2023-10-08T11:23:51;9.75;;;4.95;;
82242;SDS011;71844;51.528;4.442;2023-10-08T11:28:59;11.48;;;4.85;;
82242;SDS011;71844;51.528;4.442;2023-10-08T11:31:30;10.80;;;5.15;;
82242;SDS011;71844;51.528;4.442;2023-10-08T11:34:04;13.88;;;4.95;;
82242;SDS011;71844;51.528;4.442;2023-10-08T11:36:40;12.23;;;5.30;;
82242;SDS011;71844;51.528;4.442;2023-10-08T11:39:28;10.38;;;4.70;;
82242;SDS011;71844;51.528;4.442;2023-10-08T11:41:57;13.23;;;5.15;;
82242;SDS011;71844;51.528;4.442;2023-10-08T11:44:53;10.32;;;4.72;;
82242;SDS011;71844;51.528;4.442;2023-10-08T11:47:20;10.60;;;5.35;;
82242;SDS011;71844;51.528;4.442;2023-10-08T11:49:48;10.05;;;5.05;;
82242;SDS011;71844;51.528;4.442;2023-10-08T11:52:37;8.95;;;4.55;;
82242;SDS011;71844;51.528;4.442;2023-10-08T11:55:08;10.05;;;4.88;;
82242;SDS011;71844;51.528;4.442;2023-10-08T11:57:36;11.88;;;4.45;;
82242;SDS011;71844;51.528;4.442;2023-10-08T12:00:12;9.15;;;4.57;;
82242;SDS011;71844;51.528;4.442;2023-10-08T12:02:58;9.43;;;4.55;;
82242;SDS011;71844;51.528;4.442;2023-10-08T12:05:29;9.98;;;4.78;;
82242;SDS011;71844;51.528;4.442;2023-10-08T12:08:01;10.18;;;5.03;;
82242;SDS011;71844;51.528;4.442;2023-10-08T12:10:31;10.13;;;4.90;;
82242;SDS011;71844;51.528;4.442;2023-10-08T12:13:03;7.82;;;4.80;;
82242;SDS011;71844;51.528;4.442;2023-10-08T12:15:32;9.38;;;4.50;;
82242;SDS011;71844;51.528;4.442;2023-10-08T12:18:07;10.73;;;4.72;;
82242;SDS011;71844;51.528;4.442;2023-10-08T12:20:35;10.15;;;4.40;;
82242;SDS011;71844;51.528;4.442;2023-10-08T12:23:04;9.73;;;4.88;;
82242;SDS011;71844;51.528;4.442;2023-10-08T12:25:32;8.60;;;4.00;;
82242;SDS011;71844;51.528;4.442;2023-10-08T12:28:01;10.20;;;4.60;;
82242;SDS011;71844;51.528;4.442;2023-10-08T12:30:32;10.32;;;4.63;;
82242;SDS011;71844;51.528;4.442;2023-10-08T12:33:08;9.90;;;4.97;;
82242;SDS011;71844;51.528;4.442;2023-10-08T12:35:43;10.13;;;5.13;;
82242;SDS011;71844;51.528;4.442;2023-10-08T12:38:11;11.25;;;4.70;;
82242;SDS011;71844;51.528;4.442;2023-10-08T12:40:42;8.73;;;5.13;;
82242;SDS011;71844;51.528;4.442;2023-10-08T12:43:28;9.88;;;4.72;;
82242;SDS011;71844;51.528;4.442;2023-10-08T12:45:56;8.57;;;4.80;;
82242;SDS011;71844;51.528;4.442;2023-10-08T12:48:26;10.68;;;5.03;;
82242;SDS011;71844;51.528;4.442;2023-10-08T12:50:54;10.90;;;4.88;;
82242;SDS011;71844;51.528;4.442;2023-10-08T12:53:28;15.45;;;5.03;;
82242;SDS011;71844;51.528;4.442;2023-10-08T12:56:04;13.38;;;5.22;;
82242;SDS011;71844;51.528;4.442;2023-10-08T12:58:35;9.98;;;4.70;;
82242;SDS011;71844;51.528;4.442;2023-10-08T13:01:10;10.30;;;5.05;;
82242;SDS011;71844;51.528;4.442;2023-10-08T13:03:38;10.20;;;4.57;;
82242;SDS011;71844;51.528;4.442;2023-10-08T13:06:09;12.20;;;5.05;;
82242;SDS011;71844;51.528;4.442;2023-10-08T13:08:49;11.18;;;5.18;;
82242;SDS011;71844;51.528;4.442;2023-10-08T13:11:20;9.13;;;5.00;;
82242;SDS011;71844;51.528;4.442;2023-10-08T13:13:51;10.10;;;4.05;;
82242;SDS011;71844;51.528;4.442;2023-10-08T13:16:19;11.02;;;4.50;;
82242;SDS011;71844;51.528;4.442;2023-10-08T13:18:49;9.93;;;4.40;;
82242;SDS011;71844;51.528;4.442;2023-10-08T13:21:17;9.32;;;4.55;;
82242;SDS011;71844;51.528;4.442;2023-10-08T13:23:51;9.70;;;4.75;;
82242;SDS011;71844;51.528;4.442;2023-10-08T13:26:19;13.27;;;4.93;;
82242;SDS011;71844;51.528;4.442;2023-10-08T13:28:49;10.63;;;4.88;;
82242;SDS011;71844;51.528;4.442;2023-10-08T13:31:16;10.20;;;4.82;;
82242;SDS011;71844;51.528;4.442;2023-10-08T13:33:45;9.48;;;4.85;;
82242;SDS011;71844;51.528;4.442;2023-10-08T13:36:15;11.48;;;5.30;;
82242;SDS011;71844;51.528;4.442;2023-10-08T13:38:45;10.25;;;4.70;;
82242;SDS011;71844;51.528;4.442;2023-10-08T13:41:13;13.25;;;5.15;;
82242;SDS011;71844;51.528;4.442;2023-10-08T13:43:47;11.55;;;5.78;;
82242;SDS011;71844;51.528;4.442;2023-10-08T13:46:18;9.38;;;4.93;;
82242;SDS011;71844;51.528;4.442;2023-10-08T13:48:49;10.63;;;5.30;;
82242;SDS011;71844;51.528;4.442;2023-10-08T13:51:20;12.30;;;5.88;;
82242;SDS011;71844;51.528;4.442;2023-10-08T13:53:54;12.13;;;5.82;;
82242;SDS011;71844;51.528;4.442;2023-10-08T13:56:33;11.43;;;5.95;;
82242;SDS011;71844;51.528;4.442;2023-10-08T13:59:00;11.27;;;5.88;;
82242;SDS011;71844;51.528;4.442;2023-10-08T14:01:33;9.80;;;5.78;;
82242;SDS011;71844;51.528;4.442;2023-10-08T14:04:01;11.50;;;6.68;;
82242;SDS011;71844;51.528;4.442;2023-10-08T14:06:36;15.07;;;6.35;;
82242;SDS011;71844;51.528;4.442;2023-10-08T14:09:08;12.43;;;5.90;;
82242;SDS011;71844;51.528;4.442;2023-10-08T14:11:38;13.30;;;5.75;;
82242;SDS011;71844;51.528;4.442;2023-10-08T14:14:05;12.13;;;6.25;;
82242;SDS011;71844;51.528;4.442;2023-10-08T14:16:38;12.93;;;5.70;;
82242;SDS011;71844;51.528;4.442;2023-10-08T14:19:12;10.90;;;5.85;;
82242;SDS011;71844;51.528;4.442;2023-10-08T14:21:41;12.00;;;6.75;;
82242;SDS011;71844;51.528;4.442;2023-10-08T14:24:21;10.93;;;5.78;;
82242;SDS011;71844;51.528;4.442;2023-10-08T14:26:49;14.15;;;6.53;;
82242;SDS011;71844;51.528;4.442;2023-10-08T14:29:21;12.95;;;6.80;;
82242;SDS011;71844;51.528;4.442;2023-10-08T14:31:51;14.13;;;6.38;;
82242;SDS011;71844;51.528;4.442;2023-10-08T14:34:22;13.00;;;6.88;;
82242;SDS011;71844;51.528;4.442;2023-10-08T14:37:08;12.88;;;6.55;;
82242;SDS011;71844;51.528;4.442;2023-10-08T14:39:54;13.75;;;6.38;;
82242;SDS011;71844;51.528;4.442;2023-10-08T14:42:39;11.88;;;6.15;;
82242;SDS011;71844;51.528;4.442;2023-10-08T14:45:25;12.65;;;6.15;;
82242;SDS011;71844;51.528;4.442;2023-10-08T14:47:54;14.90;;;6.72;;
82242;SDS011;71844;51.528;4.442;2023-10-08T14:50:22;14.52;;;6.80;;
82242;SDS011;71844;51.528;4.442;2023-10-08T14:52:54;11.75;;;5.97;;
82242;SDS011;71844;51.528;4.442;2023-10-08T14:55:21;11.45;;;5.18;;
82242;SDS011;71844;51.528;4.442;2023-10-08T14:57:49;11.13;;;5.45;;
82242;SDS011;71844;51.528;4.442;2023-10-08T15:00:20;8.60;;;4.40;;
82242;SDS011;71844;51.528;4.442;2023-10-08T15:02:54;10.30;;;4.20;;
82242;SDS011;71844;51.528;4.442;2023-10-08T15:05:22;8.90;;;3.80;;
82242;SDS011;71844;51.528;4.442;2023-10-08T15:07:50;10.40;;;3.90;;
82242;SDS011;71844;51.528;4.442;2023-10-08T15:10:18;8.25;;;3.35;;
82242;SDS011;71844;51.528;4.442;2023-10-08T15:12:45;7.63;;;3.17;;
82242;SDS011;71844;51.528;4.442;2023-10-08T15:15:12;7.95;;;3.38;;
82242;SDS011;71844;51.528;4.442;2023-10-08T15:17:40;9.65;;;3.55;;
82242;SDS011;71844;51.528;4.442;2023-10-08T15:20:08;7.72;;;3.40;;
82242;SDS011;71844;51.528;4.442;2023-10-08T15:22:41;8.25;;;3.33;;
82242;SDS011;71844;51.528;4.442;2023-10-08T15:25:12;6.78;;;2.92;;
82242;SDS011;71844;51.528;4.442;2023-10-08T15:27:41;8.98;;;2.80;;
82242;SDS011;71844;51.528;4.442;2023-10-08T15:30:11;9.05;;;3.10;;
82242;SDS011;71844;51.528;4.442;2023-10-08T15:32:39;8.15;;;3.30;;
82242;SDS011;71844;51.528;4.442;2023-10-08T15:35:07;8.93;;;3.55;;
82242;SDS011;71844;51.528;4.442;2023-10-08T15:37:36;7.80;;;3.05;;
82242;SDS011;71844;51.528;4.442;2023-10-08T15:40:04;10.95;;;3.30;;
82242;SDS011;71844;51.528;4.442;2023-10-08T15:42:35;6.90;;;3.05;;
82242;SDS011;71844;51.528;4.442;2023-10-08T15:45:03;6.22;;;3.00;;
82242;SDS011;71844;51.528;4.442;2023-10-08T15:47:34;8.13;;;3.70;;